sensor_id;sensor_type;location;lat;lon;timestamp;P1;durP1;ratioP1;P2;durP2;ratioP2
9042;SDS011;4556;49.150;8.808;2023-03-11T00:01:41;1.23;;;0.97;;
9042;SDS011;4556;49.150;8.808;2023-03-11T00:04:09;1.87;;;0.77;;
9042;SDS011;4556;49.150;8.808;2023-03-11T00:06:37;1.40;;;0.80;;
9042;SDS011;4556;49.150;8.808;2023-03-11T00:09:04;2.00;;;0.80;;
9042;SDS011;4556;49.150;8.808;2023-03-11T00:11:31;1.23;;;0.90;;
9042;SDS011;4556;49.150;8.808;2023-03-11T00:13:58;2.50;;;0.70;;
9042;SDS011;4556;49.150;8.808;2023-03-11T00:16:25;1.10;;;0.70;;
9042;SDS011;4556;49.150;8.808;2023-03-11T00:18:52;0.90;;;0.70;;
9042;SDS011;4556;49.150;8.808;2023-03-11T00:21:20;1.43;;;0.60;;
9042;SDS011;4556;49.150;8.808;2023-03-11T00:23:47;1.90;;;0.60;;
9042;SDS011;4556;49.150;8.808;2023-03-11T00:26:14;0.50;;;0.50;;
9042;SDS011;4556;49.150;8.808;2023-03-11T00:28:41;0.87;;;0.50;;
9042;SDS011;4556;49.150;8.808;2023-03-11T00:31:09;1.50;;;0.70;;
9042;SDS011;4556;49.150;8.808;2023-03-11T00:33:37;1.17;;;0.80;;
9042;SDS011;4556;49.150;8.808;2023-03-11T00:36:05;0.60;;;0.60;;
9042;SDS011;4556;49.150;8.808;2023-03-11T00:38:34;0.67;;;0.47;;
9042;SDS011;4556;49.150;8.808;2023-03-11T00:41:01;0.50;;;0.40;;
9042;SDS011;4556;49.150;8.808;2023-03-11T00:43:28;0.40;;;0.40;;
9042;SDS011;4556;49.150;8.808;2023-03-11T00:45:55;2.40;;;0.57;;
9042;SDS011;4556;49.150;8.808;2023-03-11T00:48:22;1.23;;;0.53;;
9042;SDS011;4556;49.150;8.808;2023-03-11T00:50:49;1.63;;;0.60;;
9042;SDS011;4556;49.150;8.808;2023-03-11T00:53:16;0.50;;;0.40;;
9042;SDS011;4556;49.150;8.808;2023-03-11T00:55:45;1.43;;;0.63;;
9042;SDS011;4556;49.150;8.808;2023-03-11T00:58:12;0.57;;;0.50;;
9042;SDS011;4556;49.150;8.808;2023-03-11T01:00:39;0.57;;;0.37;;
9042;SDS011;4556;49.150;8.808;2023-03-11T01:03:06;2.37;;;0.70;;
9042;SDS011;4556;49.150;8.808;2023-03-11T01:05:33;1.50;;;0.60;;
9042;SDS011;4556;49.150;8.808;2023-03-11T01:08:01;1.63;;;0.60;;
9042;SDS011;4556;49.150;8.808;2023-03-11T01:10:29;1.90;;;0.50;;
9042;SDS011;4556;49.150;8.808;2023-03-11T01:12:59;3.80;;;0.93;;
9042;SDS011;4556;49.150;8.808;2023-03-11T01:15:28;1.07;;;0.60;;
9042;SDS011;4556;49.150;8.808;2023-03-11T01:17:57;0.53;;;0.53;;
9042;SDS011;4556;49.150;8.808;2023-03-11T01:20:24;1.33;;;0.70;;
9042;SDS011;4556;49.150;8.808;2023-03-11T01:22:52;2.07;;;0.70;;
9042;SDS011;4556;49.150;8.808;2023-03-11T01:25:19;1.47;;;0.60;;
9042;SDS011;4556;49.150;8.808;2023-03-11T01:27:47;1.13;;;0.80;;
9042;SDS011;4556;49.150;8.808;2023-03-11T01:30:17;0.80;;;0.60;;
9042;SDS011;4556;49.150;8.808;2023-03-11T01:32:45;2.07;;;0.60;;
9042;SDS011;4556;49.150;8.808;2023-03-11T01:35:13;2.70;;;0.83;;
9042;SDS011;4556;49.150;8.808;2023-03-11T01:37:41;1.23;;;0.60;;
9042;SDS011;4556;49.150;8.808;2023-03-11T01:40:10;4.10;;;0.90;;
9042;SDS011;4556;49.150;8.808;2023-03-11T01:42:40;1.70;;;0.90;;
9042;SDS011;4556;49.150;8.808;2023-03-11T01:45:17;1.33;;;0.70;;
9042;SDS011;4556;49.150;8.808;2023-03-11T01:47:56;2.33;;;0.77;;
9042;SDS011;4556;49.150;8.808;2023-03-11T01:50:23;2.07;;;0.80;;
9042;SDS011;4556;49.150;8.808;2023-03-11T01:52:52;2.77;;;0.80;;
9042;SDS011;4556;49.150;8.808;2023-03-11T01:55:19;1.03;;;0.90;;
9042;SDS011;4556;49.150;8.808;2023-03-11T01:57:46;2.27;;;1.13;;
9042;SDS011;4556;49.150;8.808;2023-03-11T02:00:14;2.50;;;0.90;;
9042;SDS011;4556;49.150;8.808;2023-03-11T02:02:45;1.13;;;0.90;;
9042;SDS011;4556;49.150;8.808;2023-03-11T02:05:16;3.67;;;0.97;;
9042;SDS011;4556;49.150;8.808;2023-03-11T02:07:45;1.53;;;0.93;;
9042;SDS011;4556;49.150;8.808;2023-03-11T02:10:14;2.23;;;0.97;;
9042;SDS011;4556;49.150;8.808;2023-03-11T02:12:42;2.60;;;0.90;;
9042;SDS011;4556;49.150;8.808;2023-03-11T02:15:10;5.00;;;0.67;;
9042;SDS011;4556;49.150;8.808;2023-03-11T02:17:40;3.13;;;1.00;;
9042;SDS011;4556;49.150;8.808;2023-03-11T02:20:13;2.00;;;0.80;;
9042;SDS011;4556;49.150;8.808;2023-03-11T02:22:46;2.33;;;1.00;;
9042;SDS011;4556;49.150;8.808;2023-03-11T02:25:17;3.63;;;1.10;;
9042;SDS011;4556;49.150;8.808;2023-03-11T02:27:52;3.97;;;1.27;;
9042;SDS011;4556;49.150;8.808;2023-03-11T02:30:21;2.50;;;0.80;;
9042;SDS011;4556;49.150;8.808;2023-03-11T02:32:49;1.67;;;0.90;;
9042;SDS011;4556;49.150;8.808;2023-03-11T02:35:17;1.90;;;0.60;;
9042;SDS011;4556;49.150;8.808;2023-03-11T02:37:44;1.90;;;0.53;;
9042;SDS011;4556;49.150;8.808;2023-03-11T02:40:27;2.23;;;0.73;;
9042;SDS011;4556;49.150;8.808;2023-03-11T02:43:02;1.10;;;0.67;;
9042;SDS011;4556;49.150;8.808;2023-03-11T02:45:32;2.80;;;0.90;;
9042;SDS011;4556;49.150;8.808;2023-03-11T02:48:01;3.07;;;0.60;;
9042;SDS011;4556;49.150;8.808;2023-03-11T02:50:29;1.23;;;0.53;;
9042;SDS011;4556;49.150;8.808;2023-03-11T02:52:58;2.20;;;0.60;;
9042;SDS011;4556;49.150;8.808;2023-03-11T02:55:25;1.73;;;0.63;;
9042;SDS011;4556;49.150;8.808;2023-03-11T02:57:52;2.33;;;0.70;;
9042;SDS011;4556;49.150;8.808;2023-03-11T03:00:21;2.97;;;0.80;;
9042;SDS011;4556;49.150;8.808;2023-03-11T03:02:49;2.20;;;0.93;;
9042;SDS011;4556;49.150;8.808;2023-03-11T03:05:16;2.77;;;0.77;;
9042;SDS011;4556;49.150;8.808;2023-03-11T03:07:44;3.57;;;0.73;;
9042;SDS011;4556;49.150;8.808;2023-03-11T03:10:12;5.67;;;1.23;;
9042;SDS011;4556;49.150;8.808;2023-03-11T03:12:40;1.20;;;0.60;;
9042;SDS011;4556;49.150;8.808;2023-03-11T03:15:08;1.43;;;0.77;;
9042;SDS011;4556;49.150;8.808;2023-03-11T03:17:37;1.50;;;0.73;;
9042;SDS011;4556;49.150;8.808;2023-03-11T03:20:05;2.97;;;0.80;;
9042;SDS011;4556;49.150;8.808;2023-03-11T03:22:36;2.80;;;0.80;;
9042;SDS011;4556;49.150;8.808;2023-03-11T03:25:04;2.50;;;0.87;;
9042;SDS011;4556;49.150;8.808;2023-03-11T03:27:32;2.87;;;0.80;;
9042;SDS011;4556;49.150;8.808;2023-03-11T03:29:59;4.30;;;1.10;;
9042;SDS011;4556;49.150;8.808;2023-03-11T03:32:27;1.70;;;0.70;;
9042;SDS011;4556;49.150;8.808;2023-03-11T03:34:55;1.10;;;0.90;;
9042;SDS011;4556;49.150;8.808;2023-03-11T03:37:24;1.70;;;0.80;;
9042;SDS011;4556;49.150;8.808;2023-03-11T03:39:52;3.40;;;0.90;;
9042;SDS011;4556;49.150;8.808;2023-03-11T03:42:19;3.00;;;0.97;;
9042;SDS011;4556;49.150;8.808;2023-03-11T03:44:46;1.47;;;0.90;;
9042;SDS011;4556;49.150;8.808;2023-03-11T03:47:13;1.40;;;0.70;;
9042;SDS011;4556;49.150;8.808;2023-03-11T03:49:40;2.00;;;0.80;;
9042;SDS011;4556;49.150;8.808;2023-03-11T03:52:08;2.00;;;0.70;;
9042;SDS011;4556;49.150;8.808;2023-03-11T03:54:35;1.53;;;0.83;;
9042;SDS011;4556;49.150;8.808;2023-03-11T03:57:03;3.47;;;1.00;;
9042;SDS011;4556;49.150;8.808;2023-03-11T03:59:30;1.90;;;0.83;;
9042;SDS011;4556;49.150;8.808;2023-03-11T04:01:57;2.00;;;0.70;;
9042;SDS011;4556;49.150;8.808;2023-03-11T04:04:24;4.30;;;1.00;;
9042;SDS011;4556;49.150;8.808;2023-03-11T04:06:52;4.77;;;1.30;;
9042;SDS011;4556;49.150;8.808;2023-03-11T04:09:20;3.40;;;0.83;;
9042;SDS011;4556;49.150;8.808;2023-03-11T04:11:47;1.37;;;0.70;;
9042;SDS011;4556;49.150;8.808;2023-03-11T04:14:14;3.93;;;0.90;;
9042;SDS011;4556;49.150;8.808;2023-03-11T04:16:41;2.80;;;0.90;;
9042;SDS011;4556;49.150;8.808;2023-03-11T04:19:08;2.53;;;0.80;;
9042;SDS011;4556;49.150;8.808;2023-03-11T04:21:35;1.70;;;0.80;;
9042;SDS011;4556;49.150;8.808;2023-03-11T04:24:02;3.87;;;0.83;;
9042;SDS011;4556;49.150;8.808;2023-03-11T04:26:31;4.63;;;1.00;;
9042;SDS011;4556;49.150;8.808;2023-03-11T04:28:58;3.40;;;0.90;;
9042;SDS011;4556;49.150;8.808;2023-03-11T04:31:25;3.73;;;0.70;;
9042;SDS011;4556;49.150;8.808;2023-03-11T04:33:52;2.43;;;0.73;;
9042;SDS011;4556;49.150;8.808;2023-03-11T04:36:19;1.63;;;0.73;;
9042;SDS011;4556;49.150;8.808;2023-03-11T04:38:46;1.20;;;0.70;;
9042;SDS011;4556;49.150;8.808;2023-03-11T04:41:13;2.87;;;0.70;;
9042;SDS011;4556;49.150;8.808;2023-03-11T04:43:42;2.30;;;0.70;;
9042;SDS011;4556;49.150;8.808;2023-03-11T04:46:09;3.20;;;0.93;;
9042;SDS011;4556;49.150;8.808;2023-03-11T04:48:36;2.47;;;0.90;;
9042;SDS011;4556;49.150;8.808;2023-03-11T04:51:03;1.63;;;0.73;;
9042;SDS011;4556;49.150;8.808;2023-03-11T04:53:33;1.30;;;0.80;;
9042;SDS011;4556;49.150;8.808;2023-03-11T04:56:00;1.83;;;0.93;;
9042;SDS011;4556;49.150;8.808;2023-03-11T04:58:27;4.20;;;1.10;;
9042;SDS011;4556;49.150;8.808;2023-03-11T05:00:56;2.47;;;0.80;;
9042;SDS011;4556;49.150;8.808;2023-03-11T05:03:23;1.93;;;0.70;;
9042;SDS011;4556;49.150;8.808;2023-03-11T05:05:50;2.03;;;0.93;;
9042;SDS011;4556;49.150;8.808;2023-03-11T05:08:20;3.63;;;1.03;;
9042;SDS011;4556;49.150;8.808;2023-03-11T05:10:48;2.10;;;0.90;;
9042;SDS011;4556;49.150;8.808;2023-03-11T05:13:16;3.97;;;1.10;;
9042;SDS011;4556;49.150;8.808;2023-03-11T05:15:43;6.33;;;1.00;;
9042;SDS011;4556;49.150;8.808;2023-03-11T05:18:12;1.80;;;0.80;;
9042;SDS011;4556;49.150;8.808;2023-03-11T05:20:39;2.87;;;1.00;;
9042;SDS011;4556;49.150;8.808;2023-03-11T05:23:06;2.17;;;0.80;;
9042;SDS011;4556;49.150;8.808;2023-03-11T05:25:33;3.23;;;0.93;;
9042;SDS011;4556;49.150;8.808;2023-03-11T05:28:01;1.87;;;0.80;;
9042;SDS011;4556;49.150;8.808;2023-03-11T05:30:28;4.70;;;1.57;;
9042;SDS011;4556;49.150;8.808;2023-03-11T05:32:54;4.00;;;1.20;;
9042;SDS011;4556;49.150;8.808;2023-03-11T05:35:23;2.27;;;0.90;;
9042;SDS011;4556;49.150;8.808;2023-03-11T05:37:50;3.10;;;0.70;;
9042;SDS011;4556;49.150;8.808;2023-03-11T05:40:17;4.13;;;0.80;;
9042;SDS011;4556;49.150;8.808;2023-03-11T05:42:45;3.60;;;0.80;;
9042;SDS011;4556;49.150;8.808;2023-03-11T05:45:12;1.43;;;0.70;;
9042;SDS011;4556;49.150;8.808;2023-03-11T05:47:40;3.77;;;1.03;;
9042;SDS011;4556;49.150;8.808;2023-03-11T05:50:08;2.30;;;1.00;;
9042;SDS011;4556;49.150;8.808;2023-03-11T05:52:37;2.30;;;1.07;;
9042;SDS011;4556;49.150;8.808;2023-03-11T05:55:05;1.60;;;0.90;;
9042;SDS011;4556;49.150;8.808;2023-03-11T05:57:34;2.50;;;1.40;;
9042;SDS011;4556;49.150;8.808;2023-03-11T06:00:01;8.07;;;1.80;;
9042;SDS011;4556;49.150;8.808;2023-03-11T06:02:30;2.73;;;1.40;;
9042;SDS011;4556;49.150;8.808;2023-03-11T06:04:57;2.37;;;1.13;;
9042;SDS011;4556;49.150;8.808;2023-03-11T06:07:23;1.87;;;1.43;;
9042;SDS011;4556;49.150;8.808;2023-03-11T06:09:52;6.17;;;1.20;;
9042;SDS011;4556;49.150;8.808;2023-03-11T06:12:19;1.83;;;1.00;;
9042;SDS011;4556;49.150;8.808;2023-03-11T06:14:46;2.83;;;1.07;;
9042;SDS011;4556;49.150;8.808;2023-03-11T06:17:13;3.10;;;1.30;;
9042;SDS011;4556;49.150;8.808;2023-03-11T06:19:40;3.57;;;1.60;;
9042;SDS011;4556;49.150;8.808;2023-03-11T06:22:07;2.40;;;1.30;;
9042;SDS011;4556;49.150;8.808;2023-03-11T06:24:34;3.40;;;0.93;;
9042;SDS011;4556;49.150;8.808;2023-03-11T06:27:03;5.27;;;1.70;;
9042;SDS011;4556;49.150;8.808;2023-03-11T06:29:30;3.23;;;1.43;;
9042;SDS011;4556;49.150;8.808;2023-03-11T06:31:57;3.37;;;1.60;;
9042;SDS011;4556;49.150;8.808;2023-03-11T06:34:24;6.10;;;3.20;;
9042;SDS011;4556;49.150;8.808;2023-03-11T06:36:51;3.53;;;1.37;;
9042;SDS011;4556;49.150;8.808;2023-03-11T06:39:19;1.87;;;1.10;;
9042;SDS011;4556;49.150;8.808;2023-03-11T06:41:46;4.67;;;1.83;;
9042;SDS011;4556;49.150;8.808;2023-03-11T06:44:14;2.77;;;1.40;;
9042;SDS011;4556;49.150;8.808;2023-03-11T06:46:41;3.77;;;1.23;;
9042;SDS011;4556;49.150;8.808;2023-03-11T06:49:08;3.97;;;1.33;;
9042;SDS011;4556;49.150;8.808;2023-03-11T06:51:36;5.10;;;1.33;;
9042;SDS011;4556;49.150;8.808;2023-03-11T06:54:03;2.90;;;1.80;;
9042;SDS011;4556;49.150;8.808;2023-03-11T06:56:30;3.80;;;1.37;;
9042;SDS011;4556;49.150;8.808;2023-03-11T06:58:57;5.20;;;1.10;;
9042;SDS011;4556;49.150;8.808;2023-03-11T07:01:26;5.77;;;1.30;;
9042;SDS011;4556;49.150;8.808;2023-03-11T07:03:53;4.60;;;1.33;;
9042;SDS011;4556;49.150;8.808;2023-03-11T07:06:20;5.57;;;1.20;;
9042;SDS011;4556;49.150;8.808;2023-03-11T07:08:50;3.30;;;1.20;;
9042;SDS011;4556;49.150;8.808;2023-03-11T07:11:19;4.27;;;1.50;;
9042;SDS011;4556;49.150;8.808;2023-03-11T07:13:47;2.23;;;1.20;;
9042;SDS011;4556;49.150;8.808;2023-03-11T07:16:15;5.93;;;1.30;;
9042;SDS011;4556;49.150;8.808;2023-03-11T07:18:46;3.40;;;1.20;;
9042;SDS011;4556;49.150;8.808;2023-03-11T07:21:16;3.03;;;1.20;;
9042;SDS011;4556;49.150;8.808;2023-03-11T07:23:44;4.03;;;1.23;;
9042;SDS011;4556;49.150;8.808;2023-03-11T07:26:13;7.03;;;1.27;;
9042;SDS011;4556;49.150;8.808;2023-03-11T07:28:41;4.17;;;1.20;;
9042;SDS011;4556;49.150;8.808;2023-03-11T07:31:10;7.57;;;1.40;;
9042;SDS011;4556;49.150;8.808;2023-03-11T07:33:38;7.97;;;2.30;;
9042;SDS011;4556;49.150;8.808;2023-03-11T07:36:09;3.80;;;1.20;;
9042;SDS011;4556;49.150;8.808;2023-03-11T07:38:37;2.10;;;1.10;;
9042;SDS011;4556;49.150;8.808;2023-03-11T07:41:05;2.47;;;1.00;;
9042;SDS011;4556;49.150;8.808;2023-03-11T07:43:33;3.87;;;1.40;;
9042;SDS011;4556;49.150;8.808;2023-03-11T07:46:01;3.40;;;0.97;;
9042;SDS011;4556;49.150;8.808;2023-03-11T07:48:29;4.20;;;0.90;;
9042;SDS011;4556;49.150;8.808;2023-03-11T07:51:03;5.13;;;1.30;;
9042;SDS011;4556;49.150;8.808;2023-03-11T07:53:33;7.20;;;1.57;;
9042;SDS011;4556;49.150;8.808;2023-03-11T07:56:01;3.83;;;1.33;;
9042;SDS011;4556;49.150;8.808;2023-03-11T07:58:29;5.30;;;1.10;;
9042;SDS011;4556;49.150;8.808;2023-03-11T08:00:56;4.90;;;1.30;;
9042;SDS011;4556;49.150;8.808;2023-03-11T08:03:28;5.43;;;1.40;;
9042;SDS011;4556;49.150;8.808;2023-03-11T08:05:55;5.67;;;1.00;;
9042;SDS011;4556;49.150;8.808;2023-03-11T08:08:23;3.37;;;1.50;;
9042;SDS011;4556;49.150;8.808;2023-03-11T08:10:52;3.03;;;1.33;;
9042;SDS011;4556;49.150;8.808;2023-03-11T08:13:19;4.10;;;1.13;;
9042;SDS011;4556;49.150;8.808;2023-03-11T08:15:46;3.20;;;1.10;;
9042;SDS011;4556;49.150;8.808;2023-03-11T08:18:13;5.90;;;1.20;;
9042;SDS011;4556;49.150;8.808;2023-03-11T08:20:40;6.33;;;1.20;;
9042;SDS011;4556;49.150;8.808;2023-03-11T08:23:09;4.87;;;1.37;;
9042;SDS011;4556;49.150;8.808;2023-03-11T08:25:37;6.90;;;1.33;;
9042;SDS011;4556;49.150;8.808;2023-03-11T08:28:06;3.63;;;1.27;;
9042;SDS011;4556;49.150;8.808;2023-03-11T08:30:34;3.40;;;1.30;;
9042;SDS011;4556;49.150;8.808;2023-03-11T08:33:01;5.43;;;1.40;;
9042;SDS011;4556;49.150;8.808;2023-03-11T08:35:29;5.13;;;1.37;;
9042;SDS011;4556;49.150;8.808;2023-03-11T08:37:56;5.10;;;1.20;;
9042;SDS011;4556;49.150;8.808;2023-03-11T08:40:23;3.10;;;1.07;;
9042;SDS011;4556;49.150;8.808;2023-03-11T08:42:50;6.63;;;1.40;;
9042;SDS011;4556;49.150;8.808;2023-03-11T08:45:19;4.37;;;1.33;;
9042;SDS011;4556;49.150;8.808;2023-03-11T08:47:46;3.17;;;1.07;;
9042;SDS011;4556;49.150;8.808;2023-03-11T08:50:14;5.07;;;1.70;;
9042;SDS011;4556;49.150;8.808;2023-03-11T08:52:43;2.77;;;1.13;;
9042;SDS011;4556;49.150;8.808;2023-03-11T08:55:11;5.20;;;1.27;;
9042;SDS011;4556;49.150;8.808;2023-03-11T08:57:40;4.13;;;1.30;;
9042;SDS011;4556;49.150;8.808;2023-03-11T09:00:08;5.10;;;1.13;;
9042;SDS011;4556;49.150;8.808;2023-03-11T09:02:39;4.27;;;1.40;;
9042;SDS011;4556;49.150;8.808;2023-03-11T09:05:07;4.53;;;1.40;;
9042;SDS011;4556;49.150;8.808;2023-03-11T09:07:35;2.70;;;1.10;;
9042;SDS011;4556;49.150;8.808;2023-03-11T09:10:02;3.13;;;1.30;;
9042;SDS011;4556;49.150;8.808;2023-03-11T09:12:30;5.50;;;1.40;;
9042;SDS011;4556;49.150;8.808;2023-03-11T09:14:59;4.70;;;1.70;;
9042;SDS011;4556;49.150;8.808;2023-03-11T09:17:26;5.73;;;1.43;;
9042;SDS011;4556;49.150;8.808;2023-03-11T09:19:55;4.93;;;2.00;;
9042;SDS011;4556;49.150;8.808;2023-03-11T09:22:22;6.03;;;1.50;;
9042;SDS011;4556;49.150;8.808;2023-03-11T09:24:49;2.63;;;1.00;;
9042;SDS011;4556;49.150;8.808;2023-03-11T09:27:16;3.97;;;1.30;;
9042;SDS011;4556;49.150;8.808;2023-03-11T09:29:43;2.87;;;0.97;;
9042;SDS011;4556;49.150;8.808;2023-03-11T09:32:11;3.37;;;1.27;;
9042;SDS011;4556;49.150;8.808;2023-03-11T09:34:38;6.73;;;1.60;;
9042;SDS011;4556;49.150;8.808;2023-03-11T09:37:07;7.07;;;1.60;;
9042;SDS011;4556;49.150;8.808;2023-03-11T09:39:33;5.10;;;1.77;;
9042;SDS011;4556;49.150;8.808;2023-03-11T09:42:01;3.27;;;1.37;;
9042;SDS011;4556;49.150;8.808;2023-03-11T09:44:32;4.17;;;1.27;;
9042;SDS011;4556;49.150;8.808;2023-03-11T09:47:14;6.67;;;1.57;;
9042;SDS011;4556;49.150;8.808;2023-03-11T09:52:51;2.40;;;0.80;;
9042;SDS011;4556;49.150;8.808;2023-03-11T09:55:33;4.40;;;1.10;;
9042;SDS011;4556;49.150;8.808;2023-03-11T09:58:08;4.00;;;1.40;;
9042;SDS011;4556;49.150;8.808;2023-03-11T10:00:38;4.10;;;1.20;;
9042;SDS011;4556;49.150;8.808;2023-03-11T10:03:06;4.97;;;1.57;;
9042;SDS011;4556;49.150;8.808;2023-03-11T10:05:43;4.27;;;1.20;;
9042;SDS011;4556;49.150;8.808;2023-03-11T10:08:14;4.90;;;1.30;;
9042;SDS011;4556;49.150;8.808;2023-03-11T10:10:49;4.70;;;1.20;;
9042;SDS011;4556;49.150;8.808;2023-03-11T10:13:25;2.70;;;0.87;;
9042;SDS011;4556;49.150;8.808;2023-03-11T10:15:59;6.90;;;1.10;;
9042;SDS011;4556;49.150;8.808;2023-03-11T10:18:39;7.03;;;1.27;;
9042;SDS011;4556;49.150;8.808;2023-03-11T10:21:17;4.80;;;0.90;;
9042;SDS011;4556;49.150;8.808;2023-03-11T10:23:59;3.23;;;0.80;;
9042;SDS011;4556;49.150;8.808;2023-03-11T10:26:43;5.00;;;1.13;;
9042;SDS011;4556;49.150;8.808;2023-03-11T10:29:15;3.73;;;1.07;;
9042;SDS011;4556;49.150;8.808;2023-03-11T10:31:46;4.00;;;1.00;;
9042;SDS011;4556;49.150;8.808;2023-03-11T10:34:19;3.70;;;0.90;;
9042;SDS011;4556;49.150;8.808;2023-03-11T10:36:53;3.93;;;0.90;;
9042;SDS011;4556;49.150;8.808;2023-03-11T10:39:30;3.40;;;1.10;;
9042;SDS011;4556;49.150;8.808;2023-03-11T10:41:59;4.27;;;1.00;;
9042;SDS011;4556;49.150;8.808;2023-03-11T10:44:29;3.90;;;1.40;;
9042;SDS011;4556;49.150;8.808;2023-03-11T10:46:59;1.77;;;0.83;;
9042;SDS011;4556;49.150;8.808;2023-03-11T10:49:27;5.37;;;1.33;;
9042;SDS011;4556;49.150;8.808;2023-03-11T10:51:55;6.73;;;1.00;;
9042;SDS011;4556;49.150;8.808;2023-03-11T10:54:24;2.70;;;0.80;;
9042;SDS011;4556;49.150;8.808;2023-03-11T10:56:55;3.37;;;0.90;;
9042;SDS011;4556;49.150;8.808;2023-03-11T10:59:26;3.67;;;1.10;;
9042;SDS011;4556;49.150;8.808;2023-03-11T11:01:55;5.90;;;1.20;;
9042;SDS011;4556;49.150;8.808;2023-03-11T11:04:33;4.07;;;1.10;;
9042;SDS011;4556;49.150;8.808;2023-03-11T11:07:18;5.70;;;1.33;;
9042;SDS011;4556;49.150;8.808;2023-03-11T11:10:08;6.13;;;1.30;;
9042;SDS011;4556;49.150;8.808;2023-03-11T11:12:50;5.13;;;1.10;;
9042;SDS011;4556;49.150;8.808;2023-03-11T11:15:20;4.93;;;1.10;;
9042;SDS011;4556;49.150;8.808;2023-03-11T11:17:48;4.47;;;1.13;;
9042;SDS011;4556;49.150;8.808;2023-03-11T11:20:17;7.13;;;1.20;;
9042;SDS011;4556;49.150;8.808;2023-03-11T11:22:50;4.33;;;1.03;;
9042;SDS011;4556;49.150;8.808;2023-03-11T11:25:23;4.47;;;1.00;;
9042;SDS011;4556;49.150;8.808;2023-03-11T11:27:57;2.80;;;1.13;;
9042;SDS011;4556;49.150;8.808;2023-03-11T11:30:26;2.53;;;1.10;;
9042;SDS011;4556;49.150;8.808;2023-03-11T11:32:54;3.73;;;0.90;;
9042;SDS011;4556;49.150;8.808;2023-03-11T11:35:22;2.73;;;1.00;;
9042;SDS011;4556;49.150;8.808;2023-03-11T11:37:51;5.07;;;1.20;;
9042;SDS011;4556;49.150;8.808;2023-03-11T11:40:23;2.90;;;1.10;;
9042;SDS011;4556;49.150;8.808;2023-03-11T11:42:53;2.20;;;0.97;;
9042;SDS011;4556;49.150;8.808;2023-03-11T11:45:27;4.47;;;1.00;;
9042;SDS011;4556;49.150;8.808;2023-03-11T11:47:58;2.13;;;0.83;;
9042;SDS011;4556;49.150;8.808;2023-03-11T11:50:30;1.90;;;1.03;;
9042;SDS011;4556;49.150;8.808;2023-03-11T11:53:03;3.00;;;0.93;;
9042;SDS011;4556;49.150;8.808;2023-03-11T11:55:39;4.00;;;1.40;;
9042;SDS011;4556;49.150;8.808;2023-03-11T11:58:11;2.30;;;0.80;;
9042;SDS011;4556;49.150;8.808;2023-03-11T12:00:41;5.17;;;1.20;;
9042;SDS011;4556;49.150;8.808;2023-03-11T12:03:24;4.70;;;1.07;;
9042;SDS011;4556;49.150;8.808;2023-03-11T12:06:11;3.20;;;1.07;;
9042;SDS011;4556;49.150;8.808;2023-03-11T12:08:44;4.53;;;1.20;;
9042;SDS011;4556;49.150;8.808;2023-03-11T12:11:15;2.77;;;0.77;;
9042;SDS011;4556;49.150;8.808;2023-03-11T12:13:55;4.30;;;1.23;;
9042;SDS011;4556;49.150;8.808;2023-03-11T12:16:30;6.03;;;1.37;;
9042;SDS011;4556;49.150;8.808;2023-03-11T12:19:12;3.87;;;1.37;;
9042;SDS011;4556;49.150;8.808;2023-03-11T12:21:49;2.80;;;0.90;;
9042;SDS011;4556;49.150;8.808;2023-03-11T12:24:50;2.57;;;1.00;;
9042;SDS011;4556;49.150;8.808;2023-03-11T12:27:31;2.80;;;1.00;;
9042;SDS011;4556;49.150;8.808;2023-03-11T12:30:03;3.27;;;1.03;;
9042;SDS011;4556;49.150;8.808;2023-03-11T12:32:38;3.80;;;0.77;;
9042;SDS011;4556;49.150;8.808;2023-03-11T12:35:15;4.67;;;0.93;;
9042;SDS011;4556;49.150;8.808;2023-03-11T12:37:54;4.77;;;0.90;;
9042;SDS011;4556;49.150;8.808;2023-03-11T12:40:46;3.53;;;1.00;;
9042;SDS011;4556;49.150;8.808;2023-03-11T12:43:24;2.47;;;0.80;;
9042;SDS011;4556;49.150;8.808;2023-03-11T12:45:56;2.47;;;1.10;;
9042;SDS011;4556;49.150;8.808;2023-03-11T12:48:30;2.13;;;0.93;;
9042;SDS011;4556;49.150;8.808;2023-03-11T12:50:59;3.93;;;0.90;;
9042;SDS011;4556;49.150;8.808;2023-03-11T12:53:40;2.00;;;1.10;;
9042;SDS011;4556;49.150;8.808;2023-03-11T12:56:10;1.97;;;0.80;;
9042;SDS011;4556;49.150;8.808;2023-03-11T12:58:54;3.27;;;1.07;;
9042;SDS011;4556;49.150;8.808;2023-03-11T13:01:46;2.13;;;0.90;;
9042;SDS011;4556;49.150;8.808;2023-03-11T13:04:28;3.73;;;1.00;;
9042;SDS011;4556;49.150;8.808;2023-03-11T13:07:24;6.13;;;1.13;;
9042;SDS011;4556;49.150;8.808;2023-03-11T13:10:11;5.30;;;0.90;;
9042;SDS011;4556;49.150;8.808;2023-03-11T13:12:42;2.47;;;0.80;;
9042;SDS011;4556;49.150;8.808;2023-03-11T13:18:02;6.40;;;1.90;;
9042;SDS011;4556;49.150;8.808;2023-03-11T13:20:48;3.70;;;1.17;;
9042;SDS011;4556;49.150;8.808;2023-03-11T13:23:24;2.90;;;0.90;;
9042;SDS011;4556;49.150;8.808;2023-03-11T13:26:10;3.87;;;1.10;;
9042;SDS011;4556;49.150;8.808;2023-03-11T13:31:54;3.83;;;1.20;;
9042;SDS011;4556;49.150;8.808;2023-03-11T13:34:33;3.87;;;0.70;;
9042;SDS011;4556;49.150;8.808;2023-03-11T13:37:12;3.17;;;0.83;;
9042;SDS011;4556;49.150;8.808;2023-03-11T13:39:52;1.40;;;0.80;;
9042;SDS011;4556;49.150;8.808;2023-03-11T13:42:40;4.87;;;0.90;;
9042;SDS011;4556;49.150;8.808;2023-03-11T13:45:13;2.70;;;0.87;;
9042;SDS011;4556;49.150;8.808;2023-03-11T13:47:47;2.37;;;0.93;;
9042;SDS011;4556;49.150;8.808;2023-03-11T13:50:19;3.17;;;0.90;;
9042;SDS011;4556;49.150;8.808;2023-03-11T13:52:50;2.10;;;0.70;;
9042;SDS011;4556;49.150;8.808;2023-03-11T13:55:19;4.20;;;0.73;;
9042;SDS011;4556;49.150;8.808;2023-03-11T13:57:48;1.33;;;0.60;;
9042;SDS011;4556;49.150;8.808;2023-03-11T14:00:22;1.60;;;0.80;;
9042;SDS011;4556;49.150;8.808;2023-03-11T14:02:53;4.53;;;0.90;;
9042;SDS011;4556;49.150;8.808;2023-03-11T14:05:24;2.20;;;0.60;;
9042;SDS011;4556;49.150;8.808;2023-03-11T14:07:53;1.47;;;0.70;;
9042;SDS011;4556;49.150;8.808;2023-03-11T14:10:21;3.80;;;0.90;;
9042;SDS011;4556;49.150;8.808;2023-03-11T14:13:04;1.50;;;0.50;;
9042;SDS011;4556;49.150;8.808;2023-03-11T14:15:44;2.27;;;0.70;;
9042;SDS011;4556;49.150;8.808;2023-03-11T14:21:13;2.77;;;0.70;;
9042;SDS011;4556;49.150;8.808;2023-03-11T14:23:42;2.13;;;0.80;;
9042;SDS011;4556;49.150;8.808;2023-03-11T14:26:14;2.07;;;0.80;;
9042;SDS011;4556;49.150;8.808;2023-03-11T14:28:44;1.97;;;0.70;;
9042;SDS011;4556;49.150;8.808;2023-03-11T14:31:21;2.47;;;0.70;;
9042;SDS011;4556;49.150;8.808;2023-03-11T14:33:55;2.13;;;0.80;;
9042;SDS011;4556;49.150;8.808;2023-03-11T14:36:29;2.97;;;0.93;;
9042;SDS011;4556;49.150;8.808;2023-03-11T14:38:57;3.53;;;0.90;;
9042;SDS011;4556;49.150;8.808;2023-03-11T14:41:24;2.37;;;0.90;;
9042;SDS011;4556;49.150;8.808;2023-03-11T14:43:51;3.50;;;0.80;;
9042;SDS011;4556;49.150;8.808;2023-03-11T14:46:21;2.60;;;0.97;;
9042;SDS011;4556;49.150;8.808;2023-03-11T14:48:52;2.90;;;0.90;;
9042;SDS011;4556;49.150;8.808;2023-03-11T14:51:22;2.20;;;0.90;;
9042;SDS011;4556;49.150;8.808;2023-03-11T14:53:56;3.07;;;0.97;;
9042;SDS011;4556;49.150;8.808;2023-03-11T14:56:30;1.80;;;1.00;;
9042;SDS011;4556;49.150;8.808;2023-03-11T14:59:04;2.30;;;0.80;;
9042;SDS011;4556;49.150;8.808;2023-03-11T15:01:36;2.17;;;0.80;;
9042;SDS011;4556;49.150;8.808;2023-03-11T15:04:07;3.90;;;0.97;;
9042;SDS011;4556;49.150;8.808;2023-03-11T15:06:37;1.43;;;0.60;;
9042;SDS011;4556;49.150;8.808;2023-03-11T15:09:09;3.13;;;0.90;;
9042;SDS011;4556;49.150;8.808;2023-03-11T15:11:44;2.07;;;0.77;;
9042;SDS011;4556;49.150;8.808;2023-03-11T15:14:16;2.57;;;0.93;;
9042;SDS011;4556;49.150;8.808;2023-03-11T15:16:47;2.03;;;0.80;;
9042;SDS011;4556;49.150;8.808;2023-03-11T15:19:21;1.50;;;0.67;;
9042;SDS011;4556;49.150;8.808;2023-03-11T15:21:55;2.63;;;0.80;;
9042;SDS011;4556;49.150;8.808;2023-03-11T15:24:26;4.73;;;0.90;;
9042;SDS011;4556;49.150;8.808;2023-03-11T15:26:55;4.20;;;0.90;;
9042;SDS011;4556;49.150;8.808;2023-03-11T15:29:26;4.63;;;0.90;;
9042;SDS011;4556;49.150;8.808;2023-03-11T15:31:54;4.00;;;1.10;;
9042;SDS011;4556;49.150;8.808;2023-03-11T15:34:23;2.40;;;0.80;;
9042;SDS011;4556;49.150;8.808;2023-03-11T15:36:54;1.97;;;0.97;;
9042;SDS011;4556;49.150;8.808;2023-03-11T15:39:27;1.43;;;0.60;;
9042;SDS011;4556;49.150;8.808;2023-03-11T15:42:11;2.57;;;0.80;;
9042;SDS011;4556;49.150;8.808;2023-03-11T15:44:41;3.97;;;1.07;;
9042;SDS011;4556;49.150;8.808;2023-03-11T15:47:14;2.73;;;0.97;;